sensor_id;sensor_type;location;lat;lon;timestamp;P1;durP1;ratioP1;P2;durP2;ratioP2
74158;SDS011;62511;47.970;11.774;2023-12-28T00:01:19;1.23;;;1.00;;
74158;SDS011;62511;47.970;11.774;2023-12-28T00:03:45;1.98;;;0.80;;
74158;SDS011;62511;47.970;11.774;2023-12-28T00:06:11;0.93;;;0.65;;
74158;SDS011;62511;47.970;11.774;2023-12-28T00:08:37;1.15;;;0.60;;
74158;SDS011;62511;47.970;11.774;2023-12-28T00:11:03;1.27;;;0.80;;
74158;SDS011;62511;47.970;11.774;2023-12-28T00:13:29;0.85;;;0.60;;
74158;SDS011;62511;47.970;11.774;2023-12-28T00:15:55;2.60;;;1.10;;
74158;SDS011;62511;47.970;11.774;2023-12-28T00:18:21;1.30;;;0.80;;
74158;SDS011;62511;47.970;11.774;2023-12-28T00:20:47;1.15;;;0.77;;
74158;SDS011;62511;47.970;11.774;2023-12-28T00:23:13;2.03;;;0.73;;
74158;SDS011;62511;47.970;11.774;2023-12-28T00:25:39;1.38;;;0.90;;
74158;SDS011;62511;47.970;11.774;2023-12-28T00:28:05;1.52;;;0.70;;
74158;SDS011;62511;47.970;11.774;2023-12-28T00:30:31;2.35;;;0.95;;
74158;SDS011;62511;47.970;11.774;2023-12-28T00:32:57;1.85;;;0.63;;
74158;SDS011;62511;47.970;11.774;2023-12-28T00:35:25;1.67;;;0.60;;
74158;SDS011;62511;47.970;11.774;2023-12-28T00:37:51;1.25;;;0.77;;
74158;SDS011;62511;47.970;11.774;2023-12-28T00:40:17;1.30;;;0.70;;
74158;SDS011;62511;47.970;11.774;2023-12-28T00:42:43;0.73;;;0.70;;
74158;SDS011;62511;47.970;11.774;2023-12-28T00:45:09;3.40;;;0.88;;
74158;SDS011;62511;47.970;11.774;2023-12-28T00:47:35;1.85;;;0.70;;
74158;SDS011;62511;47.970;11.774;2023-12-28T00:50:02;1.60;;;1.10;;
74158;SDS011;62511;47.970;11.774;2023-12-28T00:52:28;1.50;;;0.50;;
74158;SDS011;62511;47.970;11.774;2023-12-28T00:54:54;1.17;;;0.85;;
74158;SDS011;62511;47.970;11.774;2023-12-28T00:57:20;1.75;;;0.98;;
74158;SDS011;62511;47.970;11.774;2023-12-28T00:59:46;1.80;;;1.00;;
74158;SDS011;62511;47.970;11.774;2023-12-28T01:02:12;1.25;;;0.90;;
74158;SDS011;62511;47.970;11.774;2023-12-28T01:04:38;0.85;;;0.50;;
74158;SDS011;62511;47.970;11.774;2023-12-28T01:07:04;1.38;;;0.73;;
74158;SDS011;62511;47.970;11.774;2023-12-28T01:09:31;1.10;;;0.60;;
74158;SDS011;62511;47.970;11.774;2023-12-28T01:11:57;2.33;;;0.77;;
74158;SDS011;62511;47.970;11.774;2023-12-28T01:14:24;1.38;;;0.60;;
74158;SDS011;62511;47.970;11.774;2023-12-28T01:16:50;0.90;;;0.75;;
74158;SDS011;62511;47.970;11.774;2023-12-28T01:19:16;0.60;;;0.50;;
74158;SDS011;62511;47.970;11.774;2023-12-28T01:21:42;0.93;;;0.50;;
74158;SDS011;62511;47.970;11.774;2023-12-28T01:24:08;0.65;;;0.50;;
74158;SDS011;62511;47.970;11.774;2023-12-28T01:26:34;1.42;;;0.93;;
74158;SDS011;62511;47.970;11.774;2023-12-28T01:29:00;0.43;;;0.40;;
74158;SDS011;62511;47.970;11.774;2023-12-28T01:31:29;0.80;;;0.60;;
74158;SDS011;62511;47.970;11.774;2023-12-28T01:33:55;0.82;;;0.70;;
74158;SDS011;62511;47.970;11.774;2023-12-28T01:36:21;0.65;;;0.57;;
74158;SDS011;62511;47.970;11.774;2023-12-28T01:38:48;1.33;;;0.73;;
74158;SDS011;62511;47.970;11.774;2023-12-28T01:41:14;0.65;;;0.30;;
74158;SDS011;62511;47.970;11.774;2023-12-28T01:43:41;1.08;;;0.70;;
74158;SDS011;62511;47.970;11.774;2023-12-28T01:46:08;0.63;;;0.40;;
74158;SDS011;62511;47.970;11.774;2023-12-28T01:48:37;1.02;;;0.40;;
74158;SDS011;62511;47.970;11.774;2023-12-28T01:51:04;0.77;;;0.35;;
74158;SDS011;62511;47.970;11.774;2023-12-28T01:53:31;1.35;;;0.60;;
74158;SDS011;62511;47.970;11.774;2023-12-28T01:55:57;0.70;;;0.40;;
74158;SDS011;62511;47.970;11.774;2023-12-28T01:58:26;0.70;;;0.60;;
74158;SDS011;62511;47.970;11.774;2023-12-28T02:00:52;0.60;;;0.50;;
74158;SDS011;62511;47.970;11.774;2023-12-28T02:03:18;0.60;;;0.50;;
74158;SDS011;62511;47.970;11.774;2023-12-28T02:05:44;2.58;;;0.82;;
74158;SDS011;62511;47.970;11.774;2023-12-28T02:08:11;2.03;;;0.82;;
74158;SDS011;62511;47.970;11.774;2023-12-28T02:10:38;2.00;;;0.93;;
74158;SDS011;62511;47.970;11.774;2023-12-28T02:13:04;0.60;;;0.60;;
74158;SDS011;62511;47.970;11.774;2023-12-28T02:15:32;1.88;;;0.70;;
74158;SDS011;62511;47.970;11.774;2023-12-28T02:18:02;1.50;;;0.98;;
74158;SDS011;62511;47.970;11.774;2023-12-28T02:20:31;0.50;;;0.50;;
74158;SDS011;62511;47.970;11.774;2023-12-28T02:22:57;0.60;;;0.60;;
74158;SDS011;62511;47.970;11.774;2023-12-28T02:25:24;0.45;;;0.45;;
74158;SDS011;62511;47.970;11.774;2023-12-28T02:27:50;0.50;;;0.50;;
74158;SDS011;62511;47.970;11.774;2023-12-28T02:30:16;0.82;;;0.70;;
74158;SDS011;62511;47.970;11.774;2023-12-28T02:33:07;0.95;;;0.60;;
74158;SDS011;62511;47.970;11.774;2023-12-28T02:38:14;0.70;;;0.50;;
74158;SDS011;62511;47.970;11.774;2023-12-28T02:40:42;0.60;;;0.55;;
74158;SDS011;62511;47.970;11.774;2023-12-28T02:43:11;0.40;;;0.28;;
74158;SDS011;62511;47.970;11.774;2023-12-28T02:45:38;0.75;;;0.45;;
74158;SDS011;62511;47.970;11.774;2023-12-28T02:48:04;1.48;;;0.75;;
74158;SDS011;62511;47.970;11.774;2023-12-28T02:50:30;0.65;;;0.55;;
74158;SDS011;62511;47.970;11.774;2023-12-28T02:52:57;1.48;;;0.77;;
74158;SDS011;62511;47.970;11.774;2023-12-28T02:55:23;2.40;;;0.88;;
74158;SDS011;62511;47.970;11.774;2023-12-28T02:57:49;0.75;;;0.55;;
74158;SDS011;62511;47.970;11.774;2023-12-28T03:00:16;1.65;;;0.70;;
74158;SDS011;62511;47.970;11.774;2023-12-28T03:02:42;0.95;;;0.55;;
74158;SDS011;62511;47.970;11.774;2023-12-28T03:05:08;2.97;;;0.63;;
74158;SDS011;62511;47.970;11.774;2023-12-28T03:07:34;0.80;;;0.52;;
74158;SDS011;62511;47.970;11.774;2023-12-28T03:10:02;0.75;;;0.57;;
74158;SDS011;62511;47.970;11.774;2023-12-28T03:12:29;0.95;;;0.45;;
74158;SDS011;62511;47.970;11.774;2023-12-28T03:14:56;5.45;;;1.15;;
74158;SDS011;62511;47.970;11.774;2023-12-28T03:17:22;1.15;;;0.93;;
74158;SDS011;62511;47.970;11.774;2023-12-28T03:19:48;0.55;;;0.52;;
74158;SDS011;62511;47.970;11.774;2023-12-28T03:22:15;0.60;;;0.60;;
74158;SDS011;62511;47.970;11.774;2023-12-28T03:24:42;0.40;;;0.40;;
74158;SDS011;62511;47.970;11.774;2023-12-28T03:27:08;0.45;;;0.40;;
74158;SDS011;62511;47.970;11.774;2023-12-28T03:29:34;0.82;;;0.55;;
74158;SDS011;62511;47.970;11.774;2023-12-28T03:32:00;0.20;;;0.20;;
74158;SDS011;62511;47.970;11.774;2023-12-28T03:34:26;0.95;;;0.60;;
74158;SDS011;62511;47.970;11.774;2023-12-28T03:36:54;0.77;;;0.77;;
74158;SDS011;62511;47.970;11.774;2023-12-28T03:39:20;2.45;;;0.75;;
74158;SDS011;62511;47.970;11.774;2023-12-28T03:41:49;2.42;;;0.95;;
74158;SDS011;62511;47.970;11.774;2023-12-28T03:44:15;0.98;;;0.50;;
74158;SDS011;62511;47.970;11.774;2023-12-28T03:46:41;0.90;;;0.60;;
74158;SDS011;62511;47.970;11.774;2023-12-28T03:49:07;1.80;;;0.73;;
74158;SDS011;62511;47.970;11.774;2023-12-28T03:51:33;0.45;;;0.40;;
74158;SDS011;62511;47.970;11.774;2023-12-28T03:53:59;1.98;;;0.70;;
74158;SDS011;62511;47.970;11.774;2023-12-28T03:56:26;2.03;;;0.98;;
74158;SDS011;62511;47.970;11.774;2023-12-28T03:58:53;0.50;;;0.50;;
74158;SDS011;62511;47.970;11.774;2023-12-28T04:01:21;1.00;;;0.50;;
74158;SDS011;62511;47.970;11.774;2023-12-28T04:03:48;0.77;;;0.50;;
74158;SDS011;62511;47.970;11.774;2023-12-28T04:06:14;0.60;;;0.60;;
74158;SDS011;62511;47.970;11.774;2023-12-28T04:08:41;1.25;;;0.43;;
74158;SDS011;62511;47.970;11.774;2023-12-28T04:11:09;1.85;;;0.68;;
74158;SDS011;62511;47.970;11.774;2023-12-28T04:13:35;0.45;;;0.45;;
74158;SDS011;62511;47.970;11.774;2023-12-28T04:16:01;0.85;;;0.60;;
74158;SDS011;62511;47.970;11.774;2023-12-28T04:18:27;0.30;;;0.30;;
74158;SDS011;62511;47.970;11.774;2023-12-28T04:20:53;0.75;;;0.50;;
74158;SDS011;62511;47.970;11.774;2023-12-28T04:23:19;1.25;;;0.55;;
74158;SDS011;62511;47.970;11.774;2023-12-28T04:25:45;1.15;;;0.45;;
74158;SDS011;62511;47.970;11.774;2023-12-28T04:28:11;0.80;;;0.70;;
74158;SDS011;62511;47.970;11.774;2023-12-28T04:30:38;3.67;;;0.60;;
74158;SDS011;62511;47.970;11.774;2023-12-28T04:33:04;5.32;;;0.82;;
74158;SDS011;62511;47.970;11.774;2023-12-28T04:35:31;0.88;;;0.68;;
74158;SDS011;62511;47.970;11.774;2023-12-28T04:37:57;0.40;;;0.40;;
74158;SDS011;62511;47.970;11.774;2023-12-28T04:40:23;0.60;;;0.47;;
74158;SDS011;62511;47.970;11.774;2023-12-28T04:42:49;0.30;;;0.30;;
74158;SDS011;62511;47.970;11.774;2023-12-28T04:45:15;2.40;;;0.65;;
74158;SDS011;62511;47.970;11.774;2023-12-28T04:47:41;0.50;;;0.43;;
74158;SDS011;62511;47.970;11.774;2023-12-28T04:50:07;3.38;;;0.40;;
74158;SDS011;62511;47.970;11.774;2023-12-28T04:52:33;0.80;;;0.30;;
74158;SDS011;62511;47.970;11.774;2023-12-28T04:54:59;0.70;;;0.50;;
74158;SDS011;62511;47.970;11.774;2023-12-28T04:57:25;0.28;;;0.20;;
74158;SDS011;62511;47.970;11.774;2023-12-28T04:59:53;0.90;;;0.47;;
74158;SDS011;62511;47.970;11.774;2023-12-28T05:02:19;0.57;;;0.30;;
74158;SDS011;62511;47.970;11.774;2023-12-28T05:04:45;0.85;;;0.40;;
74158;SDS011;62511;47.970;11.774;2023-12-28T05:07:11;0.40;;;0.40;;
74158;SDS011;62511;47.970;11.774;2023-12-28T05:09:37;0.30;;;0.30;;
74158;SDS011;62511;47.970;11.774;2023-12-28T05:12:03;0.52;;;0.50;;
74158;SDS011;62511;47.970;11.774;2023-12-28T05:14:29;0.32;;;0.17;;
74158;SDS011;62511;47.970;11.774;2023-12-28T05:16:55;0.20;;;0.20;;
74158;SDS011;62511;47.970;11.774;2023-12-28T05:19:21;0.68;;;0.52;;
74158;SDS011;62511;47.970;11.774;2023-12-28T05:21:47;0.75;;;0.40;;
74158;SDS011;62511;47.970;11.774;2023-12-28T05:24:13;0.60;;;0.50;;
74158;SDS011;62511;47.970;11.774;2023-12-28T05:26:39;0.40;;;0.40;;
74158;SDS011;62511;47.970;11.774;2023-12-28T05:29:05;0.25;;;0.20;;
74158;SDS011;62511;47.970;11.774;2023-12-28T05:31:31;1.00;;;0.40;;
74158;SDS011;62511;47.970;11.774;2023-12-28T05:33:57;0.45;;;0.40;;
74158;SDS011;62511;47.970;11.774;2023-12-28T05:36:23;0.30;;;0.30;;
74158;SDS011;62511;47.970;11.774;2023-12-28T05:38:49;0.30;;;0.30;;
74158;SDS011;62511;47.970;11.774;2023-12-28T05:41:15;0.35;;;0.35;;
74158;SDS011;62511;47.970;11.774;2023-12-28T05:43:42;0.40;;;0.40;;
74158;SDS011;62511;47.970;11.774;2023-12-28T05:46:08;0.40;;;0.40;;
74158;SDS011;62511;47.970;11.774;2023-12-28T05:48:34;0.50;;;0.32;;
74158;SDS011;62511;47.970;11.774;2023-12-28T05:51:00;0.60;;;0.55;;
74158;SDS011;62511;47.970;11.774;2023-12-28T05:53:26;0.50;;;0.50;;
74158;SDS011;62511;47.970;11.774;2023-12-28T05:58:20;0.30;;;0.20;;
74158;SDS011;62511;47.970;11.774;2023-12-28T06:00:46;1.23;;;0.50;;
74158;SDS011;62511;47.970;11.774;2023-12-28T06:03:13;0.40;;;0.38;;
74158;SDS011;62511;47.970;11.774;2023-12-28T06:05:39;0.88;;;0.50;;
74158;SDS011;62511;47.970;11.774;2023-12-28T06:08:05;0.50;;;0.50;;
74158;SDS011;62511;47.970;11.774;2023-12-28T06:10:31;0.50;;;0.50;;
74158;SDS011;62511;47.970;11.774;2023-12-28T06:12:57;1.00;;;0.63;;
74158;SDS011;62511;47.970;11.774;2023-12-28T06:15:23;0.90;;;0.60;;
74158;SDS011;62511;47.970;11.774;2023-12-28T06:17:50;6.05;;;0.70;;
74158;SDS011;62511;47.970;11.774;2023-12-28T06:20:17;0.68;;;0.68;;
74158;SDS011;62511;47.970;11.774;2023-12-28T06:22:44;0.75;;;0.55;;
74158;SDS011;62511;47.970;11.774;2023-12-28T06:25:14;0.60;;;0.50;;
74158;SDS011;62511;47.970;11.774;2023-12-28T06:27:40;0.60;;;0.43;;
74158;SDS011;62511;47.970;11.774;2023-12-28T06:30:08;1.00;;;0.55;;
74158;SDS011;62511;47.970;11.774;2023-12-28T06:32:34;0.68;;;0.52;;
74158;SDS011;62511;47.970;11.774;2023-12-28T06:35:00;0.30;;;0.30;;
74158;SDS011;62511;47.970;11.774;2023-12-28T06:37:26;0.22;;;0.22;;
74158;SDS011;62511;47.970;11.774;2023-12-28T06:39:52;0.30;;;0.30;;
74158;SDS011;62511;47.970;11.774;2023-12-28T06:42:19;0.57;;;0.40;;
74158;SDS011;62511;47.970;11.774;2023-12-28T06:44:45;0.85;;;0.35;;
74158;SDS011;62511;47.970;11.774;2023-12-28T06:47:11;0.40;;;0.40;;
74158;SDS011;62511;47.970;11.774;2023-12-28T06:49:38;0.35;;;0.17;;
74158;SDS011;62511;47.970;11.774;2023-12-28T06:52:04;0.70;;;0.22;;
74158;SDS011;62511;47.970;11.774;2023-12-28T06:54:30;0.45;;;0.40;;
74158;SDS011;62511;47.970;11.774;2023-12-28T06:56:56;0.55;;;0.40;;
74158;SDS011;62511;47.970;11.774;2023-12-28T06:59:23;0.98;;;0.70;;
74158;SDS011;62511;47.970;11.774;2023-12-28T07:01:49;0.30;;;0.30;;
74158;SDS011;62511;47.970;11.774;2023-12-28T07:04:15;0.32;;;0.32;;
74158;SDS011;62511;47.970;11.774;2023-12-28T07:06:42;1.60;;;0.30;;
74158;SDS011;62511;47.970;11.774;2023-12-28T07:09:08;0.38;;;0.38;;
74158;SDS011;62511;47.970;11.774;2023-12-28T07:11:34;0.95;;;0.82;;
74158;SDS011;62511;47.970;11.774;2023-12-28T07:14:00;1.23;;;0.57;;
74158;SDS011;62511;47.970;11.774;2023-12-28T07:16:26;0.93;;;0.45;;
74158;SDS011;62511;47.970;11.774;2023-12-28T07:18:52;0.50;;;0.43;;
74158;SDS011;62511;47.970;11.774;2023-12-28T07:21:18;0.60;;;0.40;;
74158;SDS011;62511;47.970;11.774;2023-12-28T07:23:44;1.17;;;0.57;;
74158;SDS011;62511;47.970;11.774;2023-12-28T07:26:14;2.28;;;0.40;;
74158;SDS011;62511;47.970;11.774;2023-12-28T07:28:40;0.30;;;0.30;;
74158;SDS011;62511;47.970;11.774;2023-12-28T07:31:08;0.52;;;0.30;;
74158;SDS011;62511;47.970;11.774;2023-12-28T07:33:34;2.08;;;0.65;;
74158;SDS011;62511;47.970;11.774;2023-12-28T07:36:00;0.60;;;0.60;;
74158;SDS011;62511;47.970;11.774;2023-12-28T07:38:28;2.40;;;0.93;;
74158;SDS011;62511;47.970;11.774;2023-12-28T07:40:54;1.42;;;0.63;;
74158;SDS011;62511;47.970;11.774;2023-12-28T07:43:20;0.60;;;0.40;;
74158;SDS011;62511;47.970;11.774;2023-12-28T07:45:46;0.90;;;0.55;;
74158;SDS011;62511;47.970;11.774;2023-12-28T07:48:12;1.25;;;0.50;;
74158;SDS011;62511;47.970;11.774;2023-12-28T07:50:38;0.30;;;0.30;;
74158;SDS011;62511;47.970;11.774;2023-12-28T07:53:04;0.25;;;0.25;;
74158;SDS011;62511;47.970;11.774;2023-12-28T07:55:31;6.03;;;0.68;;
74158;SDS011;62511;47.970;11.774;2023-12-28T07:57:57;0.50;;;0.50;;
74158;SDS011;62511;47.970;11.774;2023-12-28T08:00:24;1.05;;;0.50;;
74158;SDS011;62511;47.970;11.774;2023-12-28T08:02:50;1.98;;;0.80;;
74158;SDS011;62511;47.970;11.774;2023-12-28T08:05:16;0.40;;;0.40;;
74158;SDS011;62511;47.970;11.774;2023-12-28T08:07:42;0.40;;;0.40;;
74158;SDS011;62511;47.970;11.774;2023-12-28T08:10:08;1.20;;;0.73;;
74158;SDS011;62511;47.970;11.774;2023-12-28T08:12:35;1.63;;;0.60;;
74158;SDS011;62511;47.970;11.774;2023-12-28T08:15:01;1.10;;;0.70;;
74158;SDS011;62511;47.970;11.774;2023-12-28T08:17:27;0.65;;;0.30;;
74158;SDS011;62511;47.970;11.774;2023-12-28T08:19:53;1.45;;;0.60;;
74158;SDS011;62511;47.970;11.774;2023-12-28T08:22:20;0.40;;;0.40;;
74158;SDS011;62511;47.970;11.774;2023-12-28T08:24:47;0.50;;;0.50;;
74158;SDS011;62511;47.970;11.774;2023-12-28T08:27:14;0.82;;;0.20;;
74158;SDS011;62511;47.970;11.774;2023-12-28T08:29:40;2.15;;;0.50;;
74158;SDS011;62511;47.970;11.774;2023-12-28T08:32:07;0.60;;;0.40;;
74158;SDS011;62511;47.970;11.774;2023-12-28T08:34:33;0.43;;;0.30;;
74158;SDS011;62511;47.970;11.774;2023-12-28T08:36:59;1.27;;;0.32;;
74158;SDS011;62511;47.970;11.774;2023-12-28T08:39:25;0.80;;;0.60;;
74158;SDS011;62511;47.970;11.774;2023-12-28T08:41:51;1.10;;;0.63;;
74158;SDS011;62511;47.970;11.774;2023-12-28T08:44:17;3.00;;;1.05;;
74158;SDS011;62511;47.970;11.774;2023-12-28T08:46:44;1.00;;;0.77;;
74158;SDS011;62511;47.970;11.774;2023-12-28T08:49:11;1.42;;;1.00;;
74158;SDS011;62511;47.970;11.774;2023-12-28T08:51:37;2.60;;;0.77;;
74158;SDS011;62511;47.970;11.774;2023-12-28T08:54:03;0.60;;;0.50;;
74158;SDS011;62511;47.970;11.774;2023-12-28T08:56:29;0.63;;;0.32;;
74158;SDS011;62511;47.970;11.774;2023-12-28T08:58:55;3.08;;;0.40;;
74158;SDS011;62511;47.970;11.774;2023-12-28T09:01:21;1.50;;;0.80;;
74158;SDS011;62511;47.970;11.774;2023-12-28T09:03:48;2.30;;;1.33;;
74158;SDS011;62511;47.970;11.774;2023-12-28T09:06:15;2.63;;;1.45;;
74158;SDS011;62511;47.970;11.774;2023-12-28T09:08:42;1.88;;;1.05;;
74158;SDS011;62511;47.970;11.774;2023-12-28T09:11:09;2.08;;;1.23;;
74158;SDS011;62511;47.970;11.774;2023-12-28T09:13:36;2.42;;;1.75;;
74158;SDS011;62511;47.970;11.774;2023-12-28T09:16:02;2.58;;;1.30;;
74158;SDS011;62511;47.970;11.774;2023-12-28T09:18:28;2.95;;;1.67;;
74158;SDS011;62511;47.970;11.774;2023-12-28T09:20:53;2.53;;;1.48;;
74158;SDS011;62511;47.970;11.774;2023-12-28T09:23:20;2.28;;;1.35;;
74158;SDS011;62511;47.970;11.774;2023-12-28T09:25:46;2.60;;;1.02;;
74158;SDS011;62511;47.970;11.774;2023-12-28T09:28:14;2.85;;;1.33;;
74158;SDS011;62511;47.970;11.774;2023-12-28T09:30:40;3.00;;;1.25;;
74158;SDS011;62511;47.970;11.774;2023-12-28T09:33:06;2.85;;;1.52;;
74158;SDS011;62511;47.970;11.774;2023-12-28T09:35:32;3.20;;;1.55;;
74158;SDS011;62511;47.970;11.774;2023-12-28T09:37:58;1.08;;;0.90;;
74158;SDS011;62511;47.970;11.774;2023-12-28T09:40:24;1.48;;;0.85;;
74158;SDS011;62511;47.970;11.774;2023-12-28T09:45:17;4.10;;;0.90;;
74158;SDS011;62511;47.970;11.774;2023-12-28T09:47:43;0.82;;;0.50;;
74158;SDS011;62511;47.970;11.774;2023-12-28T09:50:11;1.35;;;0.68;;
74158;SDS011;62511;47.970;11.774;2023-12-28T09:52:38;1.15;;;0.65;;
74158;SDS011;62511;47.970;11.774;2023-12-28T09:55:04;2.85;;;0.70;;
74158;SDS011;62511;47.970;11.774;2023-12-28T09:57:30;0.93;;;0.57;;
74158;SDS011;62511;47.970;11.774;2023-12-28T09:59:56;1.52;;;1.15;;
74158;SDS011;62511;47.970;11.774;2023-12-28T10:02:22;1.15;;;0.93;;
74158;SDS011;62511;47.970;11.774;2023-12-28T10:04:48;0.80;;;0.60;;
74158;SDS011;62511;47.970;11.774;2023-12-28T10:07:14;1.73;;;0.68;;
74158;SDS011;62511;47.970;11.774;2023-12-28T10:09:40;0.88;;;0.68;;
74158;SDS011;62511;47.970;11.774;2023-12-28T10:12:07;0.80;;;0.47;;
74158;SDS011;62511;47.970;11.774;2023-12-28T10:14:33;0.75;;;0.63;;
74158;SDS011;62511;47.970;11.774;2023-12-28T10:16:59;1.48;;;0.70;;
74158;SDS011;62511;47.970;11.774;2023-12-28T10:19:25;0.75;;;0.60;;
74158;SDS011;62511;47.970;11.774;2023-12-28T10:21:52;1.38;;;0.60;;
74158;SDS011;62511;47.970;11.774;2023-12-28T10:24:18;0.85;;;0.40;;
74158;SDS011;62511;47.970;11.774;2023-12-28T10:26:46;2.10;;;0.65;;
74158;SDS011;62511;47.970;11.774;2023-12-28T10:29:12;0.77;;;0.57;;
74158;SDS011;62511;47.970;11.774;2023-12-28T10:31:41;0.47;;;0.45;;
74158;SDS011;62511;47.970;11.774;2023-12-28T10:34:08;1.17;;;0.50;;
74158;SDS011;62511;47.970;11.774;2023-12-28T10:36:34;1.30;;;0.70;;
74158;SDS011;62511;47.970;11.774;2023-12-28T10:39:03;1.40;;;0.52;;
74158;SDS011;62511;47.970;11.774;2023-12-28T10:41:30;1.13;;;0.80;;
74158;SDS011;62511;47.970;11.774;2023-12-28T10:44:04;0.88;;;0.60;;
74158;SDS011;62511;47.970;11.774;2023-12-28T10:46:31;0.98;;;0.50;;
74158;SDS011;62511;47.970;11.774;2023-12-28T10:49:19;0.40;;;0.40;;
74158;SDS011;62511;47.970;11.774;2023-12-28T10:51:44;2.03;;;0.70;;
74158;SDS011;62511;47.970;11.774;2023-12-28T10:56:44;1.42;;;0.90;;
74158;SDS011;62511;47.970;11.774;2023-12-28T11:01:40;2.91;;;0.76;;
74158;SDS011;62511;47.970;11.774;2023-12-28T11:04:08;2.45;;;0.70;;
74158;SDS011;62511;47.970;11.774;2023-12-28T11:06:35;2.63;;;0.70;;
74158;SDS011;62511;47.970;11.774;2023-12-28T11:09:02;1.20;;;0.75;;
74158;SDS011;62511;47.970;11.774;2023-12-28T11:11:30;1.50;;;0.85;;
74158;SDS011;62511;47.970;11.774;2023-12-28T11:13:58;1.52;;;0.73;;
74158;SDS011;62511;47.970;11.774;2023-12-28T11:16:25;2.63;;;0.80;;
74158;SDS011;62511;47.970;11.774;2023-12-28T11:18:52;1.98;;;0.90;;
74158;SDS011;62511;47.970;11.774;2023-12-28T11:21:19;2.92;;;1.15;;
74158;SDS011;62511;47.970;11.774;2023-12-28T11:23:46;3.15;;;1.30;;
74158;SDS011;62511;47.970;11.774;2023-12-28T11:28:39;2.30;;;1.00;;
74158;SDS011;62511;47.970;11.774;2023-12-28T11:31:05;3.80;;;1.17;;
74158;SDS011;62511;47.970;11.774;2023-12-28T11:33:31;2.42;;;1.50;;
74158;SDS011;62511;47.970;11.774;2023-12-28T11:35:57;1.40;;;1.25;;
74158;SDS011;62511;47.970;11.774;2023-12-28T11:38:23;3.45;;;1.30;;
74158;SDS011;62511;47.970;11.774;2023-12-28T11:40:50;3.33;;;1.40;;
74158;SDS011;62511;47.970;11.774;2023-12-28T11:43:18;1.95;;;1.13;;
74158;SDS011;62511;47.970;11.774;2023-12-28T11:45:49;3.47;;;1.10;;
74158;SDS011;62511;47.970;11.774;2023-12-28T11:48:25;1.00;;;0.70;;
74158;SDS011;62511;47.970;11.774;2023-12-28T11:50:55;2.20;;;0.90;;
74158;SDS011;62511;47.970;11.774;2023-12-28T11:53:22;1.60;;;0.68;;
74158;SDS011;62511;47.970;11.774;2023-12-28T11:55:48;1.35;;;0.75;;
74158;SDS011;62511;47.970;11.774;2023-12-28T11:58:18;2.30;;;1.13;;
74158;SDS011;62511;47.970;11.774;2023-12-28T12:00:47;1.33;;;1.17;;
74158;SDS011;62511;47.970;11.774;2023-12-28T12:05:39;1.23;;;0.82;;
74158;SDS011;62511;47.970;11.774;2023-12-28T12:08:06;2.92;;;1.50;;
74158;SDS011;62511;47.970;11.774;2023-12-28T12:10:42;2.15;;;1.42;;
74158;SDS011;62511;47.970;11.774;2023-12-28T12:13:14;2.53;;;2.03;;
74158;SDS011;62511;47.970;11.774;2023-12-28T12:15:41;2.25;;;1.50;;
74158;SDS011;62511;47.970;11.774;2023-12-28T12:18:07;2.10;;;1.08;;
74158;SDS011;62511;47.970;11.774;2023-12-28T12:20:33;1.95;;;1.10;;
74158;SDS011;62511;47.970;11.774;2023-12-28T12:22:59;2.97;;;1.70;;
74158;SDS011;62511;47.970;11.774;2023-12-28T12:25:28;7.30;;;3.90;;
74158;SDS011;62511;47.970;11.774;2023-12-28T12:27:54;3.10;;;1.70;;
74158;SDS011;62511;47.970;11.774;2023-12-28T12:30:20;2.05;;;1.80;;
74158;SDS011;62511;47.970;11.774;2023-12-28T12:32:47;19.30;;;6.45;;
74158;SDS011;62511;47.970;11.774;2023-12-28T12:35:13;8.77;;;3.50;;
74158;SDS011;62511;47.970;11.774;2023-12-28T12:37:40;2.15;;;1.30;;
74158;SDS011;62511;47.970;11.774;2023-12-28T12:40:06;1.55;;;1.00;;
74158;SDS011;62511;47.970;11.774;2023-12-28T12:42:33;0.75;;;0.65;;
74158;SDS011;62511;47.970;11.774;2023-12-28T12:44:59;4.88;;;0.70;;
74158;SDS011;62511;47.970;11.774;2023-12-28T12:47:25;0.93;;;0.63;;
74158;SDS011;62511;47.970;11.774;2023-12-28T12:49:51;0.47;;;0.40;;
74158;SDS011;62511;47.970;11.774;2023-12-28T12:52:19;1.95;;;0.70;;
74158;SDS011;62511;47.970;11.774;2023-12-28T12:54:57;0.45;;;0.30;;
74158;SDS011;62511;47.970;11.774;2023-12-28T12:57:31;0.90;;;0.47;;
74158;SDS011;62511;47.970;11.774;2023-12-28T12:59:57;1.58;;;0.52;;
74158;SDS011;62511;47.970;11.774;2023-12-28T13:02:23;0.93;;;0.55;;
74158;SDS011;62511;47.970;11.774;2023-12-28T13:04:53;2.58;;;0.65;;
74158;SDS011;62511;47.970;11.774;2023-12-28T13:07:19;0.52;;;0.50;;
74158;SDS011;62511;47.970;11.774;2023-12-28T13:09:55;0.85;;;0.60;;
74158;SDS011;62511;47.970;11.774;2023-12-28T13:12:21;1.27;;;0.50;;
74158;SDS011;62511;47.970;11.774;2023-12-28T13:14:47;0.77;;;0.50;;
74158;SDS011;62511;47.970;11.774;2023-12-28T13:17:15;0.95;;;0.60;;
74158;SDS011;62511;47.970;11.774;2023-12-28T13:19:49;0.25;;;0.25;;
74158;SDS011;62511;47.970;11.774;2023-12-28T13:22:15;0.52;;;0.40;;
74158;SDS011;62511;47.970;11.774;2023-12-28T13:24:41;1.10;;;0.65;;
74158;SDS011;62511;47.970;11.774;2023-12-28T13:27:08;0.50;;;0.38;;
74158;SDS011;62511;47.970;11.774;2023-12-28T13:32:01;1.02;;;0.65;;
74158;SDS011;62511;47.970;11.774;2023-12-28T13:34:27;0.95;;;0.47;;
74158;SDS011;62511;47.970;11.774;2023-12-28T13:36:54;0.68;;;0.63;;
74158;SDS011;62511;47.970;11.774;2023-12-28T13:39:22;2.50;;;0.65;;
74158;SDS011;62511;47.970;11.774;2023-12-28T13:41:49;1.13;;;0.52;;
74158;SDS011;62511;47.970;11.774;2023-12-28T13:44:15;1.40;;;0.63;;
74158;SDS011;62511;47.970;11.774;2023-12-28T13:46:42;1.33;;;0.75;;
74158;SDS011;62511;47.970;11.774;2023-12-28T13:49:08;2.03;;;1.00;;
74158;SDS011;62511;47.970;11.774;2023-12-28T13:51:34;1.88;;;0.70;;
74158;SDS011;62511;47.970;11.774;2023-12-28T13:54:02;1.00;;;0.60;;
74158;SDS011;62511;47.970;11.774;2023-12-28T13:56:29;1.88;;;0.85;;
74158;SDS011;62511;47.970;11.774;2023-12-28T13:58:57;1.50;;;0.85;;
74158;SDS011;62511;47.970;11.774;2023-12-28T14:01:23;2.05;;;1.00;;
74158;SDS011;62511;47.970;11.774;2023-12-28T14:03:49;1.60;;;0.80;;
74158;SDS011;62511;47.970;11.774;2023-12-28T14:06:16;3.05;;;0.80;;
74158;SDS011;62511;47.970;11.774;2023-12-28T14:08:44;2.80;;;1.20;;
74158;SDS011;62511;47.970;11.774;2023-12-28T14:11:10;1.00;;;0.80;;
74158;SDS011;62511;47.970;11.774;2023-12-28T14:13:36;1.17;;;0.70;;
74158;SDS011;62511;47.970;11.774;2023-12-28T14:16:02;2.45;;;1.40;;
74158;SDS011;62511;47.970;11.774;2023-12-28T14:18:34;4.55;;;1.52;;
74158;SDS011;62511;47.970;11.774;2023-12-28T14:21:00;7.30;;;2.35;;
74158;SDS011;62511;47.970;11.774;2023-12-28T14:23:26;7.07;;;3.28;;
74158;SDS011;62511;47.970;11.774;2023-12-28T14:25:52;6.68;;;2.60;;
74158;SDS011;62511;47.970;11.774;2023-12-28T14:28:20;5.38;;;2.22;;
74158;SDS011;62511;47.970;11.774;2023-12-28T14:30:46;6.35;;;2.58;;
74158;SDS011;62511;47.970;11.774;2023-12-28T14:33:12;4.30;;;2.20;;
74158;SDS011;62511;47.970;11.774;2023-12-28T14:35:38;5.13;;;2.38;;
74158;SDS011;62511;47.970;11.774;2023-12-28T14:38:05;3.47;;;2.47;;
74158;SDS011;62511;47.970;11.774;2023-12-28T14:40:32;2.53;;;1.60;;
74158;SDS011;62511;47.970;11.774;2023-12-28T14:42:59;4.97;;;1.27;;
74158;SDS011;62511;47.970;11.774;2023-12-28T14:45:25;1.95;;;1.25;;
74158;SDS011;62511;47.970;11.774;2023-12-28T14:47:51;1.02;;;0.70;;
74158;SDS011;62511;47.970;11.774;2023-12-28T14:50:17;1.17;;;0.60;;